KDCA/DCA METAR and TAF weather

Enter ICAO airport designator
Station Type Date Time Source
KDCA METAR 2019/12/06 03:52 UTC NOAA

KDCA 060352Z 25004KT 10SM OVC240 03/M02 A3017 RMK AO2 SLP217 T00331022


Station Type Date Time Source
KDCA Decoded METAR 2019/12/06 03:52 UTC NOAA

WASHINGTON NATIONAL AIRPORT , VA, United States (KDCA) 38-51N 077-02W 18M
Dec 05, 2019 - 10:52 PM EST / 2019.12.06 0352 UTC
Wind: from the WSW (250 degrees) at 5 MPH (4 KT):0
Visibility: 10 mile(s):0
Sky conditions: overcast
Temperature: 37.9 F (3.3 C)
Dew Point: 28.0 F (-2.2 C)
Relative Humidity: 67%
Pressure (altimeter): 30.17 in. Hg (1021 hPa)
ob: KDCA 060352Z 25004KT 10SM OVC240 03/M02 A3017 RMK AO2 SLP217 T00331022
cycle: 4

Station Type Date Time Source
KDCA TAF 2019/12/05 21:58 UTC NOAA

TAF
AMD KDCA 052058Z 0521/0624 30013G20KT P6SM SCT050
FM052300 30007KT P6SM SCT200
FM060300 VRB03KT P6SM BKN130
FM061400 19008KT P6SM BKN090
FM061800 21010G18KT P6SM BKN060

Example: see airport list